Time;durP1;ratioP1;P1;durP2;ratioP2;P2;SDS_P1;SDS_P2;PMS_P1;PMS_P2;Temp;Humidity;BMP_temperature;BMP_pressure;BME280_temperature;BME280_humidity;BME280_pressure;Samples;Min_cycle;Max_cycle;Signal;HPM_P1;HPM_P2
2022/12/03 00:00:16;;;;;;;25.03;17.80;;;;;;;1.36;79.83;101907.22;5116560;28;20185;-67
2022/12/03 00:02:43;;;;;;;32.13;16.97;;;;;;;1.32;80.03;101896.75;5116297;28;20181;-67
2022/12/03 00:05:09;;;;;;;31.20;19.10;;;;;;;1.29;80.20;101897.66;5116183;28;20283;-67
2022/12/03 00:07:36;;;;;;;29.03;18.37;;;;;;;1.38;80.47;101908.09;5116175;28;20200;-67
2022/12/03 00:10:04;;;;;;;25.63;16.83;;;;;;;1.41;79.80;101907.16;5116098;28;20219;-67
2022/12/03 00:12:30;;;;;;;31.03;17.30;;;;;;;1.41;79.47;101910.69;5116095;28;20181;-67
2022/12/03 00:14:56;;;;;;;31.37;18.60;;;;;;;1.33;79.88;101909.06;5116464;28;20216;-67
2022/12/03 00:17:23;;;;;;;26.20;17.00;;;;;;;1.33;80.07;101909.91;5115955;28;20193;-67
2022/12/03 00:19:50;;;;;;;27.87;18.00;;;;;;;1.39;80.56;101906.31;5116169;28;20185;-67
2022/12/03 00:22:16;;;;;;;28.83;17.50;;;;;;;1.38;80.41;101913.34;5115866;28;20197;-67
2022/12/03 00:24:42;;;;;;;29.73;18.47;;;;;;;1.40;80.03;101906.28;5116104;28;20201;-67
2022/12/03 00:27:08;;;;;;;31.23;18.57;;;;;;;1.40;80.05;101903.66;5115860;28;20174;-67
2022/12/03 00:29:37;;;;;;;30.73;17.63;;;;;;;1.45;79.97;101907.09;5116016;28;20188;-67
2022/12/03 00:32:03;;;;;;;28.80;17.23;;;;;;;1.38;79.61;101902.81;5115990;28;20200;-67
2022/12/03 00:34:30;;;;;;;35.23;19.60;;;;;;;1.43;79.62;101908.03;5115631;28;20205;-67
2022/12/03 00:36:56;;;;;;;24.37;17.00;;;;;;;1.43;79.46;101903.59;5115640;28;20181;-67
2022/12/03 00:39:22;;;;;;;27.87;17.63;;;;;;;1.45;79.71;101898.31;5115615;28;20196;-67
2022/12/03 00:41:49;;;;;;;29.27;17.97;;;;;;;1.44;79.48;101899.22;5115866;28;20224;-67
2022/12/03 00:44:16;;;;;;;31.80;18.43;;;;;;;1.45;80.22;101893.91;5115452;28;20247;-67
2022/12/03 00:46:42;;;;;;;24.53;17.03;;;;;;;1.38;79.70;101904.56;5115489;28;20193;-67
2022/12/03 00:49:14;;;;;;;24.20;16.97;;;;;;;1.45;79.83;101893.91;5115325;28;20566;-67
2022/12/03 00:51:40;;;;;;;38.03;19.33;;;;;;;1.42;79.30;101893.09;5115607;28;20662;-67
2022/12/03 00:54:07;;;;;;;25.77;17.93;;;;;;;1.44;79.41;101896.59;5115545;28;20737;-67
2022/12/03 00:56:33;;;;;;;26.60;17.43;;;;;;;1.47;79.31;101899.16;5115431;28;20665;-67
2022/12/03 00:58:59;;;;;;;30.13;18.43;;;;;;;1.41;79.64;101894.88;5115713;28;20186;-67
2022/12/03 01:01:26;;;;;;;28.57;18.00;;;;;;;1.42;80.06;101904.50;5115146;28;20187;-67
2022/12/03 01:03:52;;;;;;;25.67;17.37;;;;;;;1.42;79.44;101898.38;5115018;28;20205;-67
2022/12/03 01:06:19;;;;;;;27.63;16.37;;;;;;;1.47;79.18;101904.44;5115376;28;20193;-67
2022/12/03 01:08:45;;;;;;;28.90;19.23;;;;;;;1.42;79.85;101906.28;5115205;28;20205;-67
2022/12/03 01:13:57;;;;;;;36.00;17.57;;;;;;;1.44;79.58;101908.00;5114862;28;20211;-67
2022/12/03 01:16:23;;;;;;;30.57;18.70;;;;;;;1.45;79.34;101903.59;5114872;28;20199;-67
2022/12/03 01:18:51;;;;;;;30.47;19.03;;;;;;;1.44;79.43;101904.50;5115366;28;20258;-67
2022/12/03 01:21:18;;;;;;;32.53;19.83;;;;;;;1.45;79.44;101912.38;5114866;28;20200;-67
2022/12/03 01:23:45;;;;;;;24.47;17.73;;;;;;;1.39;79.12;101912.47;5114933;28;20213;-67
2022/12/03 01:26:11;;;;;;;27.37;17.73;;;;;;;1.38;79.67;101916.00;5114647;28;20196;-67
2022/12/03 01:28:37;;;;;;;35.00;19.13;;;;;;;1.42;79.90;101907.16;5114570;28;20212;-67
2022/12/03 01:33:49;;;;;;;31.27;18.53;;;;;;;1.43;80.00;101915.94;5114810;28;20237;-67
2022/12/03 01:36:15;;;;;;;39.40;21.77;;;;;;;1.48;79.41;101904.44;5114774;28;20189;-67
2022/12/03 01:38:42;;;;;;;31.90;19.37;;;;;;;1.41;79.81;101907.16;5115006;28;20178;-67
2022/12/03 01:41:09;;;;;;;33.27;18.97;;;;;;;1.44;79.85;101910.66;5114423;28;20181;-67
2022/12/03 01:43:37;;;;;;;28.63;19.00;;;;;;;1.42;79.51;101906.28;5114408;28;20296;-67
2022/12/03 01:46:04;;;;;;;37.07;19.30;;;;;;;1.42;80.10;101907.16;5114587;28;20189;-67
2022/12/03 01:48:34;;;;;;;34.50;20.07;;;;;;;1.45;79.92;101899.19;5114203;28;20189;-67
2022/12/03 01:51:00;;;;;;;26.63;18.37;;;;;;;1.41;79.48;101905.41;5114268;28;20189;-67
2022/12/03 01:53:27;;;;;;;32.13;19.07;;;;;;;1.54;79.10;101900.81;5114384;28;20197;-67
2022/12/03 01:55:53;;;;;;;33.70;18.93;;;;;;;1.46;79.24;101903.59;5114125;28;20186;-67
2022/12/03 01:58:24;;;;;;;32.53;20.27;;;;;;;1.51;78.98;101897.34;5114104;28;20194;-67
2022/12/03 02:00:50;;;;;;;30.00;18.10;;;;;;;1.49;78.75;101902.66;5114945;28;20519;-67
2022/12/03 02:03:22;;;;;;;27.40;17.83;;;;;;;1.45;79.07;101898.31;5114215;28;20279;-67
2022/12/03 02:05:49;;;;;;;29.53;18.67;;;;;;;1.44;79.41;101897.44;5113873;28;20173;-67
2022/12/03 02:08:33;;;;;;;28.30;19.23;;;;;;;1.36;79.75;101907.22;5114146;28;20200;-67
2022/12/03 02:11:08;;;;;;;32.83;18.63;;;;;;;1.33;79.65;101902.00;5113886;28;20185;-67
2022/12/03 02:13:35;;;;;;;29.63;18.87;;;;;;;1.35;79.22;101902.84;5114135;28;20275;-67
2022/12/03 02:16:03;;;;;;;34.87;18.63;;;;;;;1.39;79.62;101894.00;5113867;28;20185;-67
2022/12/03 02:18:29;;;;;;;26.67;17.37;;;;;;;1.44;79.52;101894.81;5113861;28;20189;-67
2022/12/03 02:21:17;;;;;;;33.13;17.87;;;;;;;1.43;79.81;101898.31;5113914;28;20201;-67
2022/12/03 02:24:09;;;;;;;28.50;17.03;;;;;;;1.38;79.98;101894.88;5114173;28;20605;-67
2022/12/03 02:26:35;;;;;;;30.30;18.57;;;;;;;1.41;79.45;101893.97;5114060;28;20173;-66
2022/12/03 02:29:02;;;;;;;31.23;18.73;;;;;;;1.41;79.68;101889.59;5113650;28;20674;-66
2022/12/03 02:31:29;;;;;;;31.73;19.07;;;;;;;1.39;79.10;101882.56;5113716;28;20200;-66
2022/12/03 02:33:55;;;;;;;30.27;17.53;;;;;;;1.42;79.02;101887.81;5113647;28;20208;-67
2022/12/03 02:36:22;;;;;;;33.07;18.90;;;;;;;1.44;79.47;101883.38;5113663;28;20185;-67
2022/12/03 02:38:49;;;;;;;31.07;18.37;;;;;;;1.40;79.74;101879.03;5113638;28;20185;-67
2022/12/03 02:44:05;;;;;;;27.20;17.27;;;;;;;1.42;79.34;101872.84;5113537;28;20208;-67
2022/12/03 02:46:32;;;;;;;33.30;18.10;;;;;;;1.41;79.10;101871.13;5113834;28;20196;-67
2022/12/03 02:49:00;;;;;;;32.37;17.47;;;;;;;1.42;79.49;101871.97;5113459;28;20208;-67
2022/12/03 02:51:27;;;;;;;28.43;17.43;;;;;;;1.41;78.97;101881.66;5113799;28;20185;-67
2022/12/03 02:53:54;;;;;;;29.53;16.50;;;;;;;1.47;79.02;101875.41;5113665;28;20570;-67
2022/12/03 02:56:25;;;;;;;28.27;17.50;;;;;;;1.39;79.39;101870.25;5113452;28;20193;-67
2022/12/03 02:58:55;;;;;;;32.53;18.07;;;;;;;1.37;79.77;101872.03;5113771;28;20184;-67
2022/12/03 03:01:22;;;;;;;37.37;18.43;;;;;;;1.35;79.49;101875.59;5114008;28;20215;-67
2022/12/03 03:03:50;;;;;;;32.80;17.33;;;;;;;1.46;79.32;101873.66;5113546;28;20209;-67
2022/12/03 03:06:18;;;;;;;29.43;17.30;;;;;;;1.38;78.88;101875.53;5113529;28;20219;-67
2022/12/03 03:08:45;;;;;;;33.37;17.97;;;;;;;1.43;79.58;101866.66;5114140;28;20651;-67
2022/12/03 03:11:11;;;;;;;34.27;18.37;;;;;;;1.34;79.04;101866.81;5113620;28;20232;-67
2022/12/03 03:13:38;;;;;;;34.57;17.80;;;;;;;1.38;79.11;101863.22;5113311;28;20209;-67
2022/12/03 03:16:06;;;;;;;29.37;17.77;;;;;;;1.32;79.78;101863.31;5113301;28;20185;-67
2022/12/03 03:18:33;;;;;;;28.70;18.17;;;;;;;1.35;79.78;101865.03;5114534;28;20177;-67
2022/12/03 03:21:00;;;;;;;32.57;18.33;;;;;;;1.37;79.39;101861.50;5117280;28;20189;-67
2022/12/03 03:23:27;;;;;;;35.00;18.03;;;;;;;1.42;79.24;101864.06;5117438;28;20205;-67
2022/12/03 03:26:13;;;;;;;36.13;18.43;;;;;;;1.30;79.69;101864.25;5117400;28;20238;-67
2022/12/03 03:28:44;;;;;;;33.97;17.37;;;;;;;1.35;79.85;101857.13;5118976;28;20173;-67
2022/12/03 03:31:14;;;;;;;29.80;17.27;;;;;;;1.36;79.54;101865.00;5117380;28;20201;-67
2022/12/03 03:33:44;;;;;;;34.47;17.40;;;;;;;1.35;79.47;101860.63;5117149;28;20251;-67
2022/12/03 03:36:12;;;;;;;37.40;18.93;;;;;;;1.34;80.20;101860.66;5116973;28;20209;-67
2022/12/03 03:38:40;;;;;;;33.03;17.93;;;;;;;1.33;80.01;101856.28;5117309;28;20185;-67
2022/12/03 03:41:08;;;;;;;31.43;16.97;;;;;;;1.25;80.07;101859.03;5117580;28;20184;-67
2022/12/03 03:43:37;;;;;;;32.57;17.80;;;;;;;1.28;79.83;101866.91;5116666;28;20205;-67
2022/12/03 03:46:05;;;;;;;35.77;18.33;;;;;;;1.26;80.59;101863.41;5116892;28;20546;-67
2022/12/03 03:48:33;;;;;;;32.80;17.57;;;;;;;1.33;79.95;101866.84;5116620;28;20193;-67
2022/12/03 03:51:02;;;;;;;38.73;17.20;;;;;;;1.25;79.64;101859.03;5116724;28;20216;-67
2022/12/03 03:53:29;;;;;;;41.20;18.57;;;;;;;1.25;79.96;101859.91;5116454;28;20222;-67
2022/12/03 03:55:56;;;;;;;34.20;17.57;;;;;;;1.32;80.09;101857.16;5116701;28;20188;-67
2022/12/03 03:58:22;;;;;;;38.97;16.40;;;;;;;1.26;80.00;101858.13;5116411;28;20181;-67
2022/12/03 04:00:49;;;;;;;33.03;17.17;;;;;;;1.11;79.49;101861.88;5116357;28;20525;-67
2022/12/03 04:03:16;;;;;;;40.80;17.77;;;;;;;1.10;80.51;101851.31;5116254;28;20180;-67
2022/12/03 04:05:42;;;;;;;35.83;16.67;;;;;;;1.21;79.66;101849.41;5116552;28;20204;-67
2022/12/03 04:08:08;;;;;;;41.77;17.93;;;;;;;1.19;79.03;101854.69;5116251;28;20192;-67
2022/12/03 04:13:19;;;;;;;34.00;15.73;;;;;;;1.18;79.53;101844.19;5116411;28;20549;-67
2022/12/03 04:15:46;;;;;;;39.70;17.17;;;;;;;1.10;79.46;101844.28;5116377;28;20185;-67
2022/12/03 04:22:38;;;;;;;39.80;16.50;;;;;;;1.14;79.58;101843.34;5116054;28;20193;-67
2022/12/03 04:23:44;;;;;;;35.07;16.07;;;;;;;1.03;79.30;101845.25;5116011;28;20217;-67
2022/12/03 04:28:55;;;;;;;41.57;16.37;;;;;;;1.11;79.09;101835.50;5115770;28;20188;-67
2022/12/03 04:36:53;;;;;;;35.00;16.93;;;;;;;1.17;79.22;101829.25;5115646;28;20685;-67
2022/12/03 04:39:20;;;;;;;36.40;16.87;;;;;;;1.18;79.33;101823.94;5115637;28;20200;-67
2022/12/03 04:41:46;;;;;;;35.77;16.70;;;;;;;1.09;79.77;101831.13;5115850;28;20646;-67
2022/12/03 04:47:00;;;;;;;32.43;15.90;;;;;;;1.15;79.56;101831.03;5116078;28;20562;-67
2022/12/03 04:49:27;;;;;;;39.10;17.13;;;;;;;1.17;78.97;101826.59;5115357;28;20185;-67
2022/12/03 04:51:53;;;;;;;41.40;17.37;;;;;;;1.13;79.43;101840.75;5115649;28;20193;-67
2022/12/03 04:54:20;;;;;;;36.93;17.97;;;;;;;1.18;78.55;101831.88;5115785;28;20209;-67
2022/12/03 04:56:46;;;;;;;41.07;19.20;;;;;;;1.04;78.95;101829.44;5115521;28;20190;-67
2022/12/03 04:59:13;;;;;;;37.43;17.80;;;;;;;1.01;79.24;101840.03;5115277;28;20192;-67
2022/12/03 05:01:42;;;;;;;45.17;18.30;;;;;;;1.08;79.75;101834.66;5115125;28;20182;-67
2022/12/03 05:04:09;;;;;;;35.77;17.73;;;;;;;1.11;78.63;101835.50;5115320;28;20236;-67
2022/12/03 05:06:36;;;;;;;35.70;18.17;;;;;;;1.03;79.52;101830.34;5115090;28;20185;-66
2022/12/03 05:09:02;;;;;;;55.23;19.93;;;;;;;0.95;79.32;101824.28;5114982;28;20192;-66
2022/12/03 05:11:29;;;;;;;38.43;18.27;;;;;;;1.00;80.09;101840.03;5114903;28;20201;-66
2022/12/03 05:13:55;;;;;;;44.53;16.77;;;;;;;1.03;79.99;101840.00;5114824;28;20690;-67
2022/12/03 05:16:21;;;;;;;41.70;17.87;;;;;;;1.10;78.90;101833.72;5115124;28;20195;-67
2022/12/03 05:18:48;;;;;;;38.47;17.23;;;;;;;1.09;79.77;101834.63;5115400;28;20226;-67
2022/12/03 05:21:14;;;;;;;46.93;18.20;;;;;;;1.12;78.89;101833.72;5114807;28;20193;-67
2022/12/03 05:23:41;;;;;;;40.10;18.30;;;;;;;1.03;79.18;101827.69;5114873;28;20220;-67
2022/12/03 05:26:07;;;;;;;47.03;17.97;;;;;;;1.09;79.62;101828.50;5114687;28;20177;-67
2022/12/03 05:28:34;;;;;;;42.07;17.43;;;;;;;1.14;79.19;101838.06;5115176;28;20550;-67
2022/12/03 05:31:00;;;;;;;47.47;17.77;;;;;;;1.06;79.06;101832.91;5115065;28;20208;-67
2022/12/03 05:33:27;;;;;;;37.30;17.70;;;;;;;1.11;79.38;101830.22;5114495;28;20759;-67
2022/12/03 05:35:53;;;;;;;39.70;16.87;;;;;;;1.08;79.41;101838.19;5114495;28;20182;-67
2022/12/03 05:38:19;;;;;;;41.13;17.43;;;;;;;1.11;79.00;101829.34;5114462;28;20197;-67
2022/12/03 05:40:46;;;;;;;42.70;16.80;;;;;;;1.03;78.96;101840.00;5113736;28;20179;-67
2022/12/03 05:43:12;;;;;;;32.13;16.23;;;;;;;1.05;79.16;101827.66;5114295;28;20271;-67
2022/12/03 05:45:40;;;;;;;39.47;17.10;;;;;;;1.10;79.39;101835.50;5114866;28;20188;-67
2022/12/03 05:48:12;;;;;;;40.23;16.90;;;;;;;1.11;79.25;101834.63;5114588;28;20191;-67
2022/12/03 05:50:42;;;;;;;37.33;15.93;;;;;;;1.09;78.80;101834.63;5114257;28;20562;-67
2022/12/03 05:53:16;;;;;;;44.03;17.00;;;;;;;1.06;78.71;101832.06;5114691;28;20169;-67
2022/12/03 05:55:42;;;;;;;43.10;17.57;;;;;;;1.14;79.32;101831.94;5114746;28;20173;-67
2022/12/03 05:58:09;;;;;;;43.03;16.63;;;;;;;1.13;79.30;101832.84;5114404;28;20192;-67
2022/12/03 06:00:37;;;;;;;46.27;18.17;;;;;;;1.15;78.88;101831.94;5114358;28;20196;-67
2022/12/03 06:03:08;;;;;;;36.70;17.53;;;;;;;1.09;78.56;101829.34;5114601;28;20260;-67
2022/12/03 06:05:35;;;;;;;38.17;18.50;;;;;;;1.04;79.23;101821.50;5114346;28;20613;-67
2022/12/03 06:08:01;;;;;;;43.77;17.47;;;;;;;1.05;79.18;101817.09;5114268;28;20189;-67
2022/12/03 06:10:28;;;;;;;34.30;16.83;;;;;;;0.99;79.43;101818.06;5114180;28;20219;-67
2022/12/03 06:12:55;;;;;;;36.50;17.37;;;;;;;0.93;79.30;101818.16;5113928;28;20188;-67
2022/12/03 06:15:22;;;;;;;41.90;16.67;;;;;;;0.89;79.96;101821.75;5113846;28;20212;-67
2022/12/03 06:17:48;;;;;;;45.37;17.87;;;;;;;0.89;80.34;101820.84;5113914;28;20185;-67
2022/12/03 06:20:17;;;;;;;42.77;17.83;;;;;;;0.97;79.88;101819.00;5113854;28;20192;-67
2022/12/03 06:22:43;;;;;;;35.83;17.30;;;;;;;0.93;79.67;101814.66;5114387;28;20668;-67
2022/12/03 06:25:11;;;;;;;48.93;17.17;;;;;;;0.97;79.24;101811.09;5113784;28;20209;-67
2022/12/03 06:27:37;;;;;;;30.60;16.80;;;;;;;0.97;79.16;101819.00;5113760;28;20203;-67
2022/12/03 06:30:05;;;;;;;46.70;18.43;;;;;;;0.93;79.90;101812.88;5113886;28;20201;-67
2022/12/03 06:32:32;;;;;;;47.53;17.83;;;;;;;0.89;79.94;101823.47;5113969;28;20208;-67
2022/12/03 06:34:58;;;;;;;37.53;18.20;;;;;;;0.99;79.85;101814.56;5113732;28;20219;-66
2022/12/03 06:37:24;;;;;;;34.80;17.10;;;;;;;0.85;79.47;101814.75;5113646;28;20185;-66
2022/12/03 06:39:51;;;;;;;44.80;17.50;;;;;;;0.90;79.85;101812.94;5113878;28;20651;-66
2022/12/03 06:42:17;;;;;;;38.10;15.90;;;;;;;0.88;79.18;101822.63;5113609;28;20192;-66
2022/12/03 06:44:43;;;;;;;47.17;18.90;;;;;;;0.82;79.22;101820.09;5113539;28;20209;-67
2022/12/03 06:47:10;;;;;;;36.63;17.23;;;;;;;0.78;80.14;101811.34;5113579;28;20185;-67
2022/12/03 06:49:36;;;;;;;49.23;17.37;;;;;;;0.88;80.48;101819.13;5113587;28;20523;-67
2022/12/03 06:52:04;;;;;;;30.83;16.87;;;;;;;0.90;80.51;101804.16;5114179;28;20289;-67
2022/12/03 06:54:30;;;;;;;38.77;17.43;;;;;;;0.86;79.31;101816.50;5117583;28;20212;-67
2022/12/03 06:56:56;;;;;;;49.10;18.20;;;;;;;0.86;79.11;101819.13;5117831;28;20193;-67
2022/12/03 06:59:23;;;;;;;39.60;16.93;;;;;;;0.81;80.77;101819.22;5117570;28;20189;-67
2022/12/03 07:01:49;;;;;;;48.10;17.83;;;;;;;0.90;79.62;101823.47;5117790;28;20182;-67
2022/12/03 07:04:15;;;;;;;43.10;16.10;;;;;;;0.83;80.02;101827.09;5117712;28;20212;-67
2022/12/03 07:06:42;;;;;;;37.63;17.00;;;;;;;0.84;80.47;101824.44;5117686;28;20200;-67
2022/12/03 07:09:08;;;;;;;47.20;17.07;;;;;;;0.80;79.58;101821.88;5117390;28;20185;-67
2022/12/03 07:11:39;;;;;;;40.87;17.57;;;;;;;0.76;80.19;101825.44;5117223;28;20205;-67
2022/12/03 07:14:07;;;;;;;42.37;15.53;;;;;;;0.74;79.56;101817.56;5117403;28;20213;-67
2022/12/03 07:16:34;;;;;;;32.57;17.53;;;;;;;0.69;79.59;101810.59;5117200;28;20195;-67
2022/12/03 07:19:02;;;;;;;47.87;18.20;;;;;;;0.71;78.94;101814.94;5117463;28;20272;-67
2022/12/03 07:21:28;;;;;;;55.30;16.57;;;;;;;0.73;80.16;101807.03;5117292;28;20189;-67
2022/12/03 07:23:55;;;;;;;32.37;16.57;;;;;;;0.61;80.07;101816.81;5117007;28;20209;-67
2022/12/03 07:26:21;;;;;;;45.13;17.53;;;;;;;0.62;78.82;101813.31;5117080;28;20181;-67
2022/12/03 07:28:47;;;;;;;38.10;16.40;;;;;;;0.59;80.19;101812.47;5116985;28;20189;-67
2022/12/03 07:31:15;;;;;;;39.27;17.63;;;;;;;0.65;79.66;101815.03;5116919;28;20273;-67
2022/12/03 07:33:41;;;;;;;36.67;16.73;;;;;;;0.64;78.78;101824.69;5117096;28;20295;-67
2022/12/03 07:36:08;;;;;;;43.07;17.10;;;;;;;0.69;79.61;101822.00;5116835;28;20185;-67
2022/12/03 07:38:35;;;;;;;36.47;16.00;;;;;;;0.63;80.22;101827.38;5117433;28;20197;-67
2022/12/03 07:41:01;;;;;;;40.57;17.70;;;;;;;0.64;79.98;101824.69;5116777;28;20527;-67
2022/12/03 07:43:27;;;;;;;37.90;17.97;;;;;;;0.68;78.70;101827.31;5116945;28;20211;-67
2022/12/03 07:45:54;;;;;;;39.77;17.07;;;;;;;0.72;78.66;101824.63;5116677;28;20204;-67
2022/12/03 07:48:20;;;;;;;36.97;16.17;;;;;;;0.73;78.42;101826.34;5116620;28;20673;-67
2022/12/03 07:50:46;;;;;;;35.00;15.63;;;;;;;0.69;79.26;101823.75;5116799;28;20205;-67
2022/12/03 07:53:14;;;;;;;42.33;18.10;;;;;;;0.68;79.27;101816.75;5116723;28;20193;-68
2022/12/03 07:55:40;;;;;;;37.60;17.07;;;;;;;0.74;78.69;101825.47;5117149;28;20185;-67
2022/12/03 07:58:07;;;;;;;43.20;17.83;;;;;;;0.76;80.01;101812.25;5116408;28;20288;-67
2022/12/03 08:00:34;;;;;;;35.87;17.07;;;;;;;0.61;78.95;101808.94;5116397;28;20181;-67
2022/12/03 08:03:00;;;;;;;39.20;17.63;;;;;;;0.71;79.10;101817.56;5116613;28;20654;-67
2022/12/03 08:05:28;;;;;;;36.97;16.63;;;;;;;0.76;78.89;101807.84;5115425;28;20682;-67
2022/12/03 08:07:54;;;;;;;35.13;17.27;;;;;;;0.77;79.81;101820.16;5116254;28;20182;-67
2022/12/03 08:10:24;;;;;;;41.40;18.53;;;;;;;0.78;80.01;101813.09;5116417;28;20254;-67
2022/12/03 08:12:50;;;;;;;40.20;18.97;;;;;;;0.83;78.48;101812.13;5116123;28;20193;-67
2022/12/03 08:15:19;;;;;;;44.63;18.70;;;;;;;0.77;79.45;101816.66;5116198;28;20211;-67
2022/12/03 08:17:52;;;;;;;34.40;17.53;;;;;;;0.79;78.55;101810.47;5116300;28;20196;-67
2022/12/03 08:20:21;;;;;;;37.13;16.87;;;;;;;0.78;79.05;101823.66;5116480;28;20207;-67
2022/12/03 08:22:50;;;;;;;35.03;16.80;;;;;;;0.83;78.41;101819.19;5116257;28;20181;-67
2022/12/03 08:25:27;;;;;;;35.90;18.33;;;;;;;0.82;78.92;101822.72;5116799;28;20209;-67
2022/12/03 08:28:11;;;;;;;40.40;17.33;;;;;;;0.88;78.33;101821.75;5116062;28;20549;-67
2022/12/03 08:30:38;;;;;;;43.20;16.77;;;;;;;0.84;78.60;101815.66;5116035;28;20281;-67
2022/12/03 08:33:27;;;;;;;36.37;17.60;;;;;;;0.88;78.14;101816.47;5115772;28;20196;-67
2022/12/03 08:35:53;;;;;;;39.27;18.33;;;;;;;0.87;77.88;101817.38;5115702;28;20192;-67
2022/12/03 08:38:22;;;;;;;36.93;16.87;;;;;;;0.91;77.87;101811.16;5115619;28;20191;-67
2022/12/03 08:40:51;;;;;;;39.87;17.77;;;;;;;0.83;78.09;101817.41;5115755;28;20658;-67
2022/12/03 08:43:24;;;;;;;38.03;18.10;;;;;;;0.87;77.39;101805.06;5115731;28;20185;-67
2022/12/03 08:45:53;;;;;;;39.67;17.57;;;;;;;0.94;77.92;101813.78;5115794;28;20173;-67
2022/12/03 08:48:35;;;;;;;33.23;17.03;;;;;;;0.93;78.28;101810.25;5115701;28;20185;-67
2022/12/03 08:51:20;;;;;;;36.73;16.30;;;;;;;0.94;77.70;101809.38;5115317;28;20283;-67
2022/12/03 08:53:49;;;;;;;35.13;16.63;;;;;;;0.93;77.43;101818.16;5115467;28;20208;-67
2022/12/03 08:56:24;;;;;;;35.17;17.47;;;;;;;0.93;77.52;101818.16;5115875;28;20627;-67
2022/12/03 08:58:53;;;;;;;40.63;18.37;;;;;;;0.91;77.34;101819.06;5115565;28;20539;-67
2022/12/03 09:01:29;;;;;;;34.33;18.73;;;;;;;0.91;77.01;101822.59;5115157;28;20184;-67
2022/12/03 09:04:12;;;;;;;37.30;18.23;;;;;;;0.89;77.02;101823.47;5115304;28;20292;-67
2022/12/03 09:06:38;;;;;;;39.40;18.10;;;;;;;0.93;77.27;101822.56;5115986;28;20169;-67
2022/12/03 09:09:05;;;;;;;37.60;18.00;;;;;;;0.94;77.47;101817.28;5115342;28;20182;-67
2022/12/03 09:11:32;;;;;;;34.23;17.13;;;;;;;0.91;76.78;101827.88;5115348;28;20710;-67
2022/12/03 09:13:58;;;;;;;40.80;18.07;;;;;;;0.83;77.16;101820.03;5115028;28;20585;-67
2022/12/03 09:16:25;;;;;;;45.90;18.83;;;;;;;0.87;76.92;101820.03;5114399;28;20546;-67
2022/12/03 09:18:51;;;;;;;34.53;18.47;;;;;;;0.80;77.58;101817.47;5114851;28;20647;-67
2022/12/03 09:21:17;;;;;;;36.30;17.57;;;;;;;0.83;77.38;101819.19;5114749;28;20226;-67
2022/12/03 09:23:44;;;;;;;39.93;18.03;;;;;;;0.98;77.66;101818.97;5115007;28;20205;-67
2022/12/03 09:26:10;;;;;;;37.07;18.23;;;;;;;0.97;77.34;101819.84;5115061;28;20184;-67
2022/12/03 09:28:36;;;;;;;38.83;18.83;;;;;;;0.89;77.77;101834.03;5114882;28;20546;-67
2022/12/03 09:31:03;;;;;;;41.27;18.73;;;;;;;0.84;76.67;101829.72;5114770;28;20205;-67
2022/12/03 09:33:31;;;;;;;37.67;19.63;;;;;;;0.82;76.60;101828.88;5115010;28;20208;-67
2022/12/03 09:35:58;;;;;;;43.37;17.80;;;;;;;0.80;76.94;101829.78;5114463;28;20200;-67
2022/12/03 09:38:24;;;;;;;35.43;19.13;;;;;;;0.90;78.23;101827.88;5114677;28;20200;-67
2022/12/03 09:40:52;;;;;;;46.50;19.20;;;;;;;0.95;77.29;101813.72;5114194;28;20171;-67
2022/12/03 09:43:19;;;;;;;43.83;19.03;;;;;;;0.92;77.31;101819.06;5114920;28;20590;-67
2022/12/03 09:45:47;;;;;;;46.33;20.87;;;;;;;0.93;77.43;101815.50;5114591;28;20541;-67
2022/12/03 09:48:17;;;;;;;37.63;19.37;;;;;;;0.96;76.44;101818.13;5114608;28;20177;-67
2022/12/03 09:50:43;;;;;;;50.87;19.10;;;;;;;0.99;76.40;101819.84;5114168;28;20181;-67
2022/12/03 09:53:16;;;;;;;45.37;19.87;;;;;;;0.93;77.69;101827.84;5114456;28;20611;-67
2022/12/03 09:55:44;;;;;;;40.70;19.83;;;;;;;0.95;76.49;101818.13;5114728;28;20174;-67
2022/12/03 09:58:12;;;;;;;43.87;19.73;;;;;;;0.94;76.89;101812.00;5114445;28;20202;-67
2022/12/03 10:00:40;;;;;;;46.53;17.93;;;;;;;0.90;77.03;101804.16;5114300;28;20181;-67
2022/12/03 10:03:11;;;;;;;41.83;19.80;;;;;;;1.01;76.84;101811.00;5114520;28;20191;-67
2022/12/03 10:05:38;;;;;;;39.87;18.50;;;;;;;1.01;75.86;101803.09;5114351;28;20177;-67
2022/12/03 10:08:17;;;;;;;44.63;20.00;;;;;;;0.98;77.34;101797.88;5113988;28;20181;-67
2022/12/03 10:10:43;;;;;;;41.90;19.67;;;;;;;1.01;77.37;101800.47;5114464;28;20653;-67
2022/12/03 10:13:20;;;;;;;36.53;18.83;;;;;;;1.02;76.18;101794.28;5114265;28;20177;-67
2022/12/03 10:15:54;;;;;;;42.73;19.30;;;;;;;1.01;76.95;101786.41;5113870;28;20172;-67
2022/12/03 10:18:23;;;;;;;40.37;19.50;;;;;;;1.04;76.97;101781.94;5113850;28;20177;-67
2022/12/03 10:20:50;;;;;;;37.57;18.90;;;;;;;1.11;76.10;101781.88;5113977;28;20197;-67
2022/12/03 10:23:28;;;;;;;54.77;20.30;;;;;;;1.00;77.43;101787.28;5113656;28;20733;-67
2022/12/03 10:26:01;;;;;;;50.50;20.27;;;;;;;0.93;77.02;101781.22;5113739;28;20177;-67
2022/12/03 10:28:37;;;;;;;41.27;20.17;;;;;;;0.99;77.35;101783.78;5113978;28;20534;-67
2022/12/03 10:31:06;;;;;;;44.07;20.00;;;;;;;1.06;76.26;101777.53;5113988;28;20243;-67
2022/12/03 10:33:43;;;;;;;43.20;19.33;;;;;;;1.08;76.15;101772.25;5113590;28;20235;-67
2022/12/03 10:36:19;;;;;;;38.30;20.00;;;;;;;1.12;76.72;101773.91;5114280;28;20177;-67
2022/12/03 10:39:03;;;;;;;45.87;18.33;;;;;;;1.03;76.38;101767.03;5113958;28;20169;-67
2022/12/03 10:41:30;;;;;;;37.80;18.47;;;;;;;1.20;77.03;101753.56;5114212;28;20535;-67
2022/12/03 10:44:13;;;;;;;41.30;20.33;;;;;;;1.22;76.74;101751.78;5113522;28;20214;-67
2022/12/03 10:46:40;;;;;;;38.93;19.80;;;;;;;1.26;76.47;101739.41;5113916;28;20177;-67
2022/12/03 10:49:15;;;;;;;42.77;20.03;;;;;;;1.32;76.58;101741.06;5113833;28;20177;-67
2022/12/03 10:51:43;;;;;;;45.77;19.23;;;;;;;1.26;76.82;101740.25;5113770;28;20542;-67
2022/12/03 10:54:20;;;;;;;42.90;19.03;;;;;;;1.30;76.31;101742.88;5113409;28;20212;-67
2022/12/03 10:56:48;;;;;;;46.87;19.57;;;;;;;1.29;76.21;101734.06;5113794;28;20169;-67
2022/12/03 10:59:21;;;;;;;46.73;19.47;;;;;;;1.34;75.57;101733.97;5113689;28;20203;-67
2022/12/03 11:01:49;;;;;;;38.00;18.80;;;;;;;1.29;76.21;101728.78;5113720;28;20169;-67
2022/12/03 11:04:31;;;;;;;40.73;20.43;;;;;;;1.30;75.72;101732.31;5113578;28;20205;-67
2022/12/03 11:06:57;;;;;;;40.90;19.63;;;;;;;1.32;76.47;101731.38;5113629;28;20173;-67
2022/12/03 11:09:28;;;;;;;42.87;21.47;;;;;;;1.34;75.70;101724.31;5113505;28;20181;-67
2022/12/03 11:11:54;;;;;;;45.30;19.27;;;;;;;1.22;75.73;101719.22;5113964;28;20211;-67
2022/12/03 11:14:49;;;;;;;47.60;21.73;;;;;;;1.21;75.37;101718.38;5113199;28;20213;-67
2022/12/03 11:18:05;;;;;;;43.40;21.77;;;;;;;1.15;75.75;101714.94;5113481;28;20238;-67
2022/12/03 11:20:34;;;;;;;42.30;19.67;;;;;;;1.21;75.00;101707.81;5081283;28;20213;-67
2022/12/03 11:23:01;;;;;;;46.67;20.90;;;;;;;1.08;76.94;101703.66;5095135;28;20223;-67
2022/12/03 11:25:27;;;;;;;39.47;19.23;;;;;;;1.13;76.14;101706.22;5113340;28;20205;-67
2022/12/03 11:28:09;;;;;;;44.67;19.77;;;;;;;1.11;75.38;101710.66;5113152;28;20189;-67
2022/12/03 11:30:47;;;;;;;48.97;20.33;;;;;;;1.21;75.46;101699.91;5113183;28;20204;-67
2022/12/03 11:33:29;;;;;;;42.10;21.27;;;;;;;1.17;75.79;101706.13;5113589;28;20185;-67
2022/12/03 11:36:04;;;;;;;41.57;19.03;;;;;;;1.05;76.01;101698.41;5113674;28;20185;-67
2022/12/03 11:38:37;;;;;;;37.93;19.47;;;;;;;1.16;76.00;101703.53;5113435;28;20629;-67
2022/12/03 11:41:09;;;;;;;40.03;20.33;;;;;;;1.21;76.11;101693.75;5116885;28;20294;-67
2022/12/03 11:43:50;;;;;;;40.53;19.70;;;;;;;1.22;75.79;101700.75;5117291;28;20201;-67
2022/12/03 11:46:24;;;;;;;46.40;20.77;;;;;;;1.23;75.55;101698.09;5116684;28;20272;-67
2022/12/03 11:48:54;;;;;;;47.90;19.67;;;;;;;1.25;75.29;101698.09;5116936;28;20177;-67